createdAt,value
2018-08-24T00:02:06.572Z,63.05
2018-08-24T00:04:36.109Z,62.96
2018-08-24T00:07:05.730Z,63.35
2018-08-24T00:09:35.223Z,63.05
2018-08-24T00:12:05.287Z,62.10
2018-08-24T00:14:35.772Z,62.54
2018-08-24T00:17:09.350Z,62.10
2018-08-24T00:19:39.029Z,61.98
2018-08-24T00:22:08.958Z,61.58
2018-08-24T00:24:38.414Z,62.12
2018-08-24T00:27:08.201Z,61.92
2018-08-24T00:29:37.803Z,61.04
2018-08-24T00:32:08.261Z,61.39
2018-08-24T00:34:38.337Z,61.39
2018-08-24T00:37:08.163Z,62.21
2018-08-24T00:39:41.293Z,61.56
2018-08-24T00:42:12.095Z,61.80
2018-08-24T00:44:42.331Z,62.25
2018-08-24T00:47:12.332Z,62.79
2018-08-24T00:49:42.056Z,62.68
2018-08-24T00:52:11.565Z,62.79
2018-08-24T00:54:41.015Z,62.43
2018-08-24T00:57:10.386Z,62.90
2018-08-24T00:59:39.850Z,62.98
2018-08-24T01:02:09.439Z,62.89
2018-08-24T01:04:39.161Z,63.29
2018-08-24T01:07:11.426Z,63.72
2018-08-24T01:09:41.382Z,63.46
2018-08-24T01:12:12.630Z,63.71
2018-08-24T01:14:43.699Z,64.25
2018-08-24T01:17:18.484Z,64.15
2018-08-24T01:19:48.442Z,64.21
2018-08-24T01:22:19.198Z,64.01
2018-08-24T01:24:49.046Z,65.20
2018-08-24T01:27:18.962Z,65.07
2018-08-24T01:29:49.311Z,65.22
2018-08-24T01:32:20.840Z,65.08
2018-08-24T01:34:50.473Z,64.49
2018-08-24T01:37:20.525Z,64.37
2018-08-24T01:39:50.219Z,64.57
2018-08-24T01:42:19.881Z,64.66
2018-08-24T01:44:50.419Z,64.68
2018-08-24T01:47:21.032Z,64.50
2018-08-24T01:49:50.855Z,64.78
2018-08-24T01:52:20.735Z,64.92
2018-08-24T01:54:50.143Z,65.46
2018-08-24T01:57:20.455Z,64.28
2018-08-24T01:59:50.476Z,64.82
2018-08-24T02:02:20.535Z,63.76
2018-08-24T02:04:51.612Z,63.65
2018-08-24T02:07:22.154Z,64.47
2018-08-24T02:09:52.238Z,63.40
2018-08-24T02:12:29.152Z,64.01
2018-08-24T02:14:58.900Z,63.49
2018-08-24T02:17:34.316Z,63.60
2018-08-24T02:20:10.370Z,63.52
2018-08-24T02:22:39.969Z,63.52
2018-08-24T02:25:11.958Z,62.71
2018-08-24T02:27:42.434Z,63.37
2018-08-24T02:30:12.530Z,63.42
2018-08-24T02:32:42.545Z,63.03
2018-08-24T02:35:12.285Z,62.46
2018-08-24T02:37:41.916Z,62.72
2018-08-24T02:40:11.300Z,62.75
2018-08-24T02:42:40.720Z,62.12
2018-08-24T02:45:11.003Z,61.60
2018-08-24T02:47:40.665Z,61.47
2018-08-24T02:50:10.294Z,61.83
2018-08-24T02:52:39.694Z,62.18
2018-08-24T02:55:09.086Z,60.73
2018-08-24T02:57:39.062Z,59.97
2018-08-24T03:00:08.750Z,60.47
2018-08-24T03:02:38.620Z,60.15
2018-08-24T03:05:09.305Z,60.17
2018-08-24T03:07:38.709Z,60.20
2018-08-24T03:10:08.118Z,60.09
2018-08-24T03:12:37.859Z,59.44
2018-08-24T03:15:08.267Z,60.86
2018-08-24T03:17:43.097Z,60.29
2018-08-24T03:20:13.021Z,60.34
2018-08-24T03:22:42.384Z,61.55
2018-08-24T03:25:12.551Z,61.36
2018-08-24T03:27:41.922Z,61.39
2018-08-24T03:30:26.779Z,61.35
2018-08-24T03:32:57.558Z,61.97
2018-08-24T03:35:28.553Z,61.30
2018-08-24T03:37:58.870Z,61.62
2018-08-24T03:40:28.501Z,62.13
2018-08-24T03:42:59.217Z,61.92
2018-08-24T03:45:28.625Z,62.19
2018-08-24T03:47:59.806Z,63.07
2018-08-24T03:50:30.297Z,62.85
2018-08-24T03:52:59.996Z,64.16
2018-08-24T03:55:33.495Z,63.83
2018-08-24T03:58:03.604Z,63.73
2018-08-24T04:00:33.782Z,64.01
2018-08-24T04:03:03.258Z,64.57
2018-08-24T04:05:33.933Z,64.81
2018-08-24T04:08:03.327Z,65.04
2018-08-24T04:10:34.189Z,65.18
2018-08-24T04:13:04.157Z,64.77
2018-08-24T04:15:33.838Z,64.80
2018-08-24T04:18:03.287Z,65.16
2018-08-24T04:20:33.170Z,65.38
2018-08-24T04:23:02.554Z,65.28
2018-08-24T04:25:32.193Z,64.78
2018-08-24T04:28:01.620Z,64.58
2018-08-24T04:30:32.119Z,64.74
2018-08-24T04:33:01.994Z,65.24
2018-08-24T04:35:31.470Z,65.13
2018-08-24T04:38:01.399Z,64.50
2018-08-24T04:40:33.536Z,63.94
2018-08-24T04:43:04.812Z,63.68
2018-08-24T04:45:48.515Z,63.81
2018-08-24T04:48:18.944Z,63.83
2018-08-24T04:50:53.162Z,63.65
2018-08-24T04:53:24.212Z,64.19
2018-08-24T04:55:56.338Z,63.98
2018-08-24T04:58:28.614Z,63.44
2018-08-24T05:01:00.346Z,63.44
2018-08-24T05:03:32.724Z,63.48
2018-08-24T05:06:03.300Z,62.96
2018-08-24T05:08:33.902Z,62.69
2018-08-24T05:11:03.819Z,62.73
2018-08-24T05:13:35.748Z,62.81
2018-08-24T05:16:09.028Z,62.32
2018-08-24T05:18:38.653Z,62.48
2018-08-24T05:21:08.569Z,61.43
2018-08-24T05:23:38.173Z,61.14
2018-08-24T05:26:07.807Z,60.48
2018-08-24T05:28:39.537Z,61.09
2018-08-24T05:31:13.991Z,60.75
2018-08-24T05:33:46.287Z,60.78
2018-08-24T05:36:16.764Z,60.76
2018-08-24T05:38:51.323Z,61.17
2018-08-24T05:41:23.371Z,60.39
2018-08-24T05:43:52.980Z,60.10
2018-08-24T05:46:26.162Z,59.11
2018-08-24T05:48:57.503Z,58.67
2018-08-24T05:51:29.710Z,58.56
2018-08-24T05:53:59.507Z,58.44
2018-08-24T05:56:29.438Z,58.94
2018-08-24T05:59:00.418Z,58.62
2018-08-24T06:01:35.883Z,58.90
2018-08-24T06:04:08.415Z,59.16
2018-08-24T06:06:38.065Z,58.49
2018-08-24T06:09:14.816Z,58.26
2018-08-24T06:11:46.215Z,58.23
2018-08-24T06:14:17.629Z,58.49
2018-08-24T06:16:57.589Z,57.86
2018-08-24T06:19:47.922Z,57.89
2018-08-24T06:22:21.502Z,57.88
2018-08-24T06:24:57.738Z,58.29
2018-08-24T06:27:34.019Z,58.60
2018-08-24T06:30:10.211Z,58.55
2018-08-24T06:32:45.121Z,58.23
2018-08-24T06:35:17.841Z,57.85
2018-08-24T06:37:51.469Z,57.96
2018-08-24T06:40:23.499Z,56.93
2018-08-24T06:45:22.065Z,56.75
2018-08-24T06:47:52.130Z,55.69
2018-08-24T06:50:26.864Z,54.98
2018-08-24T06:53:03.054Z,54.75
2018-08-24T06:55:32.626Z,55.03
2018-08-24T06:58:03.288Z,54.26
2018-08-24T07:00:36.571Z,54.53
2018-08-24T07:03:06.185Z,54.50
2018-08-24T07:05:36.882Z,54.00
2018-08-24T07:08:06.760Z,54.32
2018-08-24T07:10:38.491Z,54.65
2018-08-24T07:13:09.354Z,55.22
2018-08-24T07:15:38.794Z,56.50
2018-08-24T07:18:11.974Z,55.65
2018-08-24T07:20:45.645Z,55.33
2018-08-24T07:23:19.299Z,55.49
2018-08-24T07:25:50.165Z,55.41
2018-08-24T07:28:21.988Z,55.03
2018-08-24T07:30:51.777Z,54.59
2018-08-24T07:33:23.532Z,54.67
2018-08-24T07:35:53.145Z,55.03
2018-08-24T07:38:24.148Z,55.31
2018-08-24T07:40:54.641Z,54.63
2018-08-24T07:43:24.924Z,53.95
2018-08-24T07:45:54.686Z,53.46
2018-08-24T07:48:26.265Z,53.70
2018-08-24T07:50:58.955Z,52.43
2018-08-24T07:53:29.264Z,52.21
2018-08-24T07:56:00.747Z,52.70
2018-08-24T07:58:33.345Z,51.31
2018-08-24T08:01:05.790Z,50.53
2018-08-24T08:03:39.205Z,50.08
2018-08-24T08:06:09.059Z,49.57
2018-08-24T08:08:44.248Z,49.57
2018-08-24T08:11:24.107Z,50.23
2018-08-24T08:13:54.455Z,49.41
2018-08-24T08:16:26.373Z,50.50
2018-08-24T08:18:56.359Z,49.83
2018-08-24T08:21:26.610Z,50.67
2018-08-24T08:23:58.296Z,50.75
2018-08-24T08:26:28.638Z,50.54
2018-08-24T08:28:58.767Z,49.67
2018-08-24T08:31:28.715Z,49.57
2018-08-24T08:33:58.773Z,49.91
2018-08-24T08:36:33.577Z,49.85
2018-08-24T08:39:07.437Z,48.87
2018-08-24T08:41:37.166Z,49.15
2018-08-24T08:44:06.864Z,48.46
2018-08-24T08:46:36.722Z,48.76
2018-08-24T08:49:11.632Z,49.61
2018-08-24T08:51:41.524Z,49.97
2018-08-24T08:54:13.118Z,49.52
2018-08-24T08:56:42.926Z,48.85
2018-08-24T08:59:15.166Z,48.70
2018-08-24T09:01:50.350Z,48.35
2018-08-24T09:04:20.235Z,47.41
2018-08-24T09:06:49.840Z,47.65
2018-08-24T09:09:19.546Z,47.96
2018-08-24T09:11:52.581Z,48.42
2018-08-24T09:14:24.172Z,48.74
2018-08-24T09:16:53.575Z,48.86
2018-08-24T09:19:32.621Z,49.28
2018-08-24T09:22:07.799Z,49.26
2018-08-24T09:24:48.131Z,49.13
2018-08-24T09:27:30.908Z,48.05
2018-08-24T09:30:03.152Z,47.55
2018-08-24T09:32:35.029Z,46.47
2018-08-24T09:35:05.017Z,46.64
2018-08-24T09:37:39.274Z,44.88
2018-08-24T09:40:10.126Z,44.68
2018-08-24T09:42:40.472Z,43.55
2018-08-24T09:45:10.034Z,41.28
2018-08-24T09:47:44.437Z,41.51
2018-08-24T09:50:21.570Z,40.73
2018-08-24T09:52:56.248Z,40.55
2018-08-24T09:55:31.494Z,41.21
2018-08-24T09:58:04.376Z,42.62
2018-08-24T10:02:46.425Z,42.83
2018-08-24T10:08:17.952Z,41.44
2018-08-24T10:10:47.746Z,39.64
2018-08-24T10:13:18.259Z,38.49
2018-08-24T10:15:48.232Z,36.40
2018-08-24T10:18:18.765Z,36.46
2018-08-24T10:20:48.739Z,36.32
2018-08-24T10:23:18.270Z,36.67
2018-08-24T10:25:47.794Z,35.69
2018-08-24T10:28:19.240Z,36.07
2018-08-24T10:30:49.006Z,36.60
2018-08-24T10:33:19.269Z,35.61
2018-08-24T10:35:49.065Z,36.58
2018-08-24T10:38:18.756Z,36.65
2018-08-24T10:40:48.852Z,37.02
2018-08-24T10:43:18.365Z,37.42
2018-08-24T10:45:48.386Z,37.13
2018-08-24T10:48:18.280Z,38.19
2018-08-24T10:50:48.053Z,38.75
2018-08-24T10:53:17.513Z,38.88
2018-08-24T10:55:47.312Z,39.13
2018-08-24T10:58:16.919Z,35.59
2018-08-24T11:00:46.683Z,34.76
2018-08-24T11:03:17.082Z,33.98
2018-08-24T11:05:47.383Z,33.65
2018-08-24T11:08:16.937Z,32.37
2018-08-24T11:10:46.483Z,34.17
2018-08-24T11:13:16.220Z,36.01
2018-08-24T11:15:50.021Z,36.71
2018-08-24T11:18:21.630Z,37.33
2018-08-24T11:20:52.321Z,37.23
2018-08-24T11:23:22.959Z,37.19
2018-08-24T11:25:52.495Z,38.79
2018-08-24T11:28:22.528Z,39.56
2018-08-24T11:30:52.352Z,39.70
2018-08-24T11:33:23.069Z,40.01
2018-08-24T11:35:53.988Z,41.15
2018-08-24T11:38:24.140Z,42.59
2018-08-24T11:40:54.312Z,46.70
2018-08-24T11:43:24.659Z,50.77
2018-08-24T11:45:54.202Z,52.49
2018-08-24T11:48:23.757Z,55.11
2018-08-24T11:50:54.303Z,56.29
2018-08-24T11:53:25.185Z,58.21
2018-08-24T11:55:54.958Z,56.61
2018-08-24T11:58:25.877Z,57.83
2018-08-24T12:00:56.023Z,59.16
2018-08-24T12:03:26.242Z,59.13
2018-08-24T12:05:57.354Z,60.72
2018-08-24T12:08:30.031Z,58.35
2018-08-24T12:11:01.574Z,59.33
2018-08-24T12:13:31.796Z,58.62
2018-08-24T12:16:01.279Z,58.17
2018-08-24T12:18:30.967Z,59.52
2018-08-24T12:21:00.964Z,59.45
2018-08-24T12:23:30.991Z,62.02
2018-08-24T12:26:00.692Z,61.30
2018-08-24T12:28:30.736Z,59.72
2018-08-24T12:31:01.621Z,60.65
2018-08-24T12:33:31.392Z,62.55
2018-08-24T12:36:01.106Z,62.69
2018-08-24T12:38:30.508Z,63.38
2018-08-24T12:41:00.914Z,63.39
2018-08-24T12:43:31.456Z,65.37
2018-08-24T12:46:00.864Z,64.66
2018-08-24T12:48:31.603Z,66.13
2018-08-24T12:51:02.025Z,66.60
2018-08-24T12:53:33.400Z,66.39
2018-08-24T12:56:03.059Z,65.31
2018-08-24T12:58:33.400Z,67.53
2018-08-24T13:01:03.108Z,65.31
2018-08-24T13:03:32.633Z,62.47
2018-08-24T13:06:02.143Z,62.66
2018-08-24T13:08:31.823Z,64.41
2018-08-24T13:11:03.047Z,63.62
2018-08-24T13:13:33.152Z,62.22
2018-08-24T13:16:03.455Z,61.49
2018-08-24T13:18:33.288Z,60.92
2018-08-24T13:21:03.217Z,59.06
2018-08-24T13:23:32.790Z,59.63
2018-08-24T13:26:03.376Z,58.06
2018-08-24T13:28:33.620Z,57.77
2018-08-24T13:31:05.821Z,58.32
2018-08-24T13:33:35.626Z,57.16
2018-08-24T13:36:05.686Z,56.40
2018-08-24T13:38:35.808Z,56.94
2018-08-24T13:41:06.010Z,56.52
2018-08-24T13:43:37.925Z,56.67
2018-08-24T13:46:09.068Z,56.09
2018-08-24T13:48:40.483Z,54.91
2018-08-24T13:51:11.252Z,54.49
2018-08-24T13:53:41.154Z,53.10
2018-08-24T13:56:14.643Z,53.75
2018-08-24T13:58:45.062Z,52.55
2018-08-24T14:01:15.869Z,52.50
2018-08-24T14:03:46.378Z,52.62
2018-08-24T14:06:16.603Z,52.82
2018-08-24T14:08:46.180Z,50.42
2018-08-24T14:11:15.833Z,51.82
2018-08-24T14:13:45.730Z,50.63
2018-08-24T14:16:15.493Z,51.87
2018-08-24T14:18:45.686Z,50.86
2018-08-24T14:21:17.011Z,50.70
2018-08-24T14:23:48.188Z,50.04
2018-08-24T14:26:21.350Z,50.33
2018-08-24T14:28:50.957Z,49.24
2018-08-24T14:31:20.751Z,49.08
2018-08-24T14:33:51.028Z,49.92
2018-08-24T14:36:21.769Z,48.56
2018-08-24T14:38:52.193Z,49.53
2018-08-24T14:41:22.466Z,49.34
2018-08-24T14:43:52.884Z,48.67
2018-08-24T14:46:24.809Z,49.15
2018-08-24T14:48:54.746Z,48.61
2018-08-24T14:51:24.327Z,45.79
2018-08-24T14:53:54.986Z,46.67
2018-08-24T14:56:25.620Z,45.72
2018-08-24T14:58:56.440Z,45.49
2018-08-24T15:01:26.248Z,45.26
2018-08-24T15:03:56.241Z,45.00
2018-08-24T15:06:29.320Z,45.30
2018-08-24T15:08:59.869Z,45.36
2018-08-24T15:11:31.263Z,44.45
2018-08-24T15:14:01.310Z,44.23
2018-08-24T15:16:31.227Z,45.64
2018-08-24T15:19:02.420Z,45.39
2018-08-24T15:21:33.091Z,45.91
2018-08-24T15:24:03.894Z,45.58
2018-08-24T15:26:33.720Z,46.20
2018-08-24T15:29:03.634Z,46.87
2018-08-24T15:31:33.842Z,46.14
2018-08-24T15:34:03.585Z,47.28
2018-08-24T15:36:33.369Z,49.14
2018-08-24T15:39:04.898Z,51.50
2018-08-24T15:41:34.458Z,53.72
2018-08-24T15:44:03.911Z,54.95
2018-08-24T15:46:33.454Z,59.22
2018-08-24T15:49:04.444Z,69.83
2018-08-24T15:51:33.997Z,69.93
2018-08-24T15:54:04.260Z,71.57
2018-08-24T15:56:34.193Z,72.08
2018-08-24T15:59:04.226Z,72.89
2018-08-24T16:01:33.755Z,73.29
2018-08-24T16:04:03.474Z,73.47
2018-08-24T16:06:33.039Z,74.41
2018-08-24T16:09:02.908Z,74.92
2018-08-24T16:11:32.703Z,74.88
2018-08-24T16:14:02.253Z,75.97
2018-08-24T16:16:31.705Z,75.30
2018-08-24T16:19:01.126Z,74.84
2018-08-24T16:21:30.956Z,74.05
2018-08-24T16:24:00.805Z,72.59
2018-08-24T16:26:30.379Z,72.60
2018-08-24T16:28:59.804Z,72.59
2018-08-24T16:31:29.634Z,72.23
2018-08-24T16:33:59.373Z,71.84
2018-08-24T16:36:28.837Z,70.94
2018-08-24T16:38:59.236Z,70.44
2018-08-24T16:41:28.736Z,70.16
2018-08-24T16:43:58.521Z,70.23
2018-08-24T16:46:28.366Z,69.64
2018-08-24T16:48:58.711Z,69.04
2018-08-24T16:51:28.184Z,69.61
2018-08-24T16:53:58.445Z,68.88
2018-08-24T16:56:28.143Z,68.11
2018-08-24T16:58:57.536Z,68.23
2018-08-24T17:01:27.555Z,69.32
2018-08-24T17:03:57.297Z,68.97
2018-08-24T17:06:27.586Z,69.53
2018-08-24T17:08:57.616Z,68.46
2018-08-24T17:11:27.573Z,67.84
2018-08-24T17:13:57.345Z,67.80
2018-08-24T17:16:27.454Z,67.91
2018-08-24T17:18:57.826Z,67.73
2018-08-24T17:21:28.990Z,67.21
2018-08-24T17:23:59.400Z,67.71
2018-08-24T17:26:29.667Z,66.77
2018-08-24T17:29:00.648Z,66.62
2018-08-24T17:31:30.662Z,64.48
2018-08-24T17:34:01.181Z,65.41
2018-08-24T17:36:31.649Z,64.70
2018-08-24T17:39:02.788Z,65.01
2018-08-24T17:41:33.349Z,65.84
2018-08-24T17:44:03.587Z,65.90
2018-08-24T17:46:34.749Z,66.54
2018-08-24T17:49:06.360Z,66.71
2018-08-24T17:51:36.233Z,67.18
2018-08-24T17:54:06.908Z,67.12
2018-08-24T17:56:37.559Z,66.94
2018-08-24T17:59:09.507Z,67.24
2018-08-24T18:01:40.406Z,67.46
2018-08-24T18:04:10.907Z,67.23
2018-08-24T18:06:40.669Z,66.93
2018-08-24T18:09:12.128Z,68.59
2018-08-24T18:11:42.322Z,67.92
2018-08-24T18:14:12.591Z,67.31
2018-08-24T18:16:42.918Z,66.61
2018-08-24T18:19:14.360Z,66.06
2018-08-24T18:21:43.834Z,65.78
2018-08-24T18:24:13.914Z,66.10
2018-08-24T18:26:44.401Z,65.56
2018-08-24T18:29:14.930Z,65.51
2018-08-24T18:31:45.736Z,65.98
2018-08-24T18:34:16.163Z,65.18
2018-08-24T18:36:45.644Z,65.14
2018-08-24T18:39:16.394Z,65.50
2018-08-24T18:41:46.029Z,65.44
2018-08-24T18:44:16.258Z,65.08
2018-08-24T18:46:46.232Z,64.96
2018-08-24T18:49:15.747Z,64.76
2018-08-24T18:51:45.900Z,65.55
2018-08-24T18:54:15.828Z,65.60
2018-08-24T18:56:45.725Z,65.78
2018-08-24T18:59:17.539Z,65.98
2018-08-24T19:01:49.172Z,64.78
2018-08-24T19:04:20.755Z,66.42
2018-08-24T19:06:50.738Z,65.58
2018-08-24T19:09:20.791Z,66.22
2018-08-24T19:11:55.727Z,66.12
2018-08-24T19:14:27.951Z,64.65
2018-08-24T19:16:57.808Z,65.13
2018-08-24T19:19:34.219Z,65.15
2018-08-24T19:22:05.882Z,64.50
2018-08-24T19:24:35.629Z,64.82
2018-08-24T19:27:05.461Z,65.63
2018-08-24T19:29:41.496Z,64.87
2018-08-24T19:32:10.982Z,65.72
2018-08-24T19:34:40.567Z,66.58
2018-08-24T19:37:10.510Z,66.51
2018-08-24T19:39:40.458Z,66.17
2018-08-24T19:42:14.886Z,66.52
2018-08-24T19:44:45.048Z,65.94
2018-08-24T19:47:19.378Z,65.91
2018-08-24T19:49:49.190Z,65.90
2018-08-24T19:52:19.034Z,66.21
2018-08-24T19:54:48.972Z,66.08
2018-08-24T19:57:24.051Z,66.74
2018-08-24T19:59:55.384Z,66.63
2018-08-24T20:02:28.180Z,67.11
2018-08-24T20:04:58.314Z,67.17
2018-08-24T20:07:35.707Z,66.99
2018-08-24T20:10:10.785Z,67.77
2018-08-24T20:12:40.390Z,67.41
2018-08-24T20:15:15.697Z,68.18
2018-08-24T20:17:45.278Z,67.41
2018-08-24T20:20:15.535Z,67.26
2018-08-24T20:22:45.354Z,67.42
2018-08-24T20:25:17.756Z,68.07
2018-08-24T20:27:50.407Z,68.10
2018-08-24T20:30:20.435Z,68.60
2018-08-24T20:32:51.398Z,67.72
2018-08-24T20:35:21.844Z,68.08
2018-08-24T20:37:51.719Z,68.17
2018-08-24T20:40:21.887Z,67.56
2018-08-24T20:42:52.074Z,68.56
2018-08-24T20:45:22.438Z,68.14
2018-08-24T20:47:52.215Z,68.10
2018-08-24T20:50:22.398Z,68.53
2018-08-24T20:52:53.274Z,69.11
2018-08-24T20:55:23.310Z,67.95
2018-08-24T20:57:53.824Z,67.79
2018-08-24T21:00:25.978Z,67.83
2018-08-24T21:02:58.308Z,67.25
2018-08-24T21:05:28.986Z,67.92
2018-08-24T21:07:58.414Z,68.15
2018-08-24T21:10:29.996Z,67.19
2018-08-24T21:12:59.730Z,67.58
2018-08-24T21:15:30.043Z,66.91
2018-08-24T21:18:00.324Z,66.96
2018-08-24T21:20:30.058Z,66.99
2018-08-24T21:22:59.936Z,67.73
2018-08-24T21:25:30.306Z,68.37
2018-08-24T21:28:00.612Z,68.51
2018-08-24T21:30:30.901Z,68.35
2018-08-24T21:33:01.491Z,67.81
2018-08-24T21:35:32.026Z,68.32
2018-08-24T21:38:02.073Z,68.06
2018-08-24T21:40:31.902Z,67.96
2018-08-24T21:43:03.468Z,68.03
2018-08-24T21:45:33.945Z,68.83
2018-08-24T21:48:03.650Z,67.92
2018-08-24T21:50:33.149Z,68.57
2018-08-24T21:53:14.345Z,68.86
2018-08-24T21:55:44.219Z,69.17
2018-08-24T21:58:14.213Z,68.71
2018-08-24T22:00:44.783Z,68.91
2018-08-24T22:03:17.184Z,68.06
2018-08-24T22:05:47.937Z,68.74
2018-08-24T22:08:18.639Z,68.50
2018-08-24T22:10:49.402Z,68.33
2018-08-24T22:13:20.653Z,68.15
2018-08-24T22:15:50.647Z,68.37
2018-08-24T22:18:21.132Z,68.43
2018-08-24T22:20:50.877Z,69.08
2018-08-24T22:23:20.897Z,69.47
2018-08-24T22:25:51.826Z,68.74
2018-08-24T22:28:22.476Z,69.72
2018-08-24T22:30:53.361Z,69.23
2018-08-24T22:33:23.815Z,68.54
2018-08-24T22:35:54.116Z,68.53
2018-08-24T22:38:25.580Z,68.44
2018-08-24T22:40:56.249Z,68.18
2018-08-24T22:43:31.539Z,68.46
2018-08-24T22:46:02.888Z,69.07
2018-08-24T22:48:32.942Z,69.84
2018-08-24T22:51:02.722Z,69.13
2018-08-24T22:53:32.462Z,69.72
2018-08-24T22:56:02.721Z,69.50
2018-08-24T22:58:33.084Z,69.00
2018-08-24T23:01:02.895Z,68.63
2018-08-24T23:03:32.783Z,68.79
2018-08-24T23:06:02.545Z,69.46
2018-08-24T23:08:32.833Z,68.54
2018-08-24T23:11:03.221Z,69.15
2018-08-24T23:13:33.615Z,69.30
2018-08-24T23:16:04.300Z,68.90
2018-08-24T23:18:34.035Z,69.57
2018-08-24T23:21:03.762Z,69.79
2018-08-24T23:23:34.117Z,69.32
2018-08-24T23:26:04.088Z,68.73
2018-08-24T23:28:34.808Z,69.75
2018-08-24T23:31:04.619Z,69.26
2018-08-24T23:33:35.979Z,69.60
2018-08-24T23:36:06.888Z,69.97
2018-08-24T23:38:36.378Z,69.98
2018-08-24T23:41:06.901Z,69.76
2018-08-24T23:43:37.103Z,69.34
2018-08-24T23:46:07.509Z,69.25
2018-08-24T23:48:37.180Z,69.44
2018-08-24T23:51:07.031Z,70.04
2018-08-24T23:53:36.989Z,70.36
2018-08-24T23:56:06.600Z,69.10
2018-08-24T23:58:36.847Z,69.32
